sensor_id;sensor_type;location;lat;lon;timestamp;pressure;altitude;pressure_sealevel;temperature;humidity
33151;BME280;19508;42.578;23.416;2023-04-29T00:01:56;93706.19;;;7.98;51.94
33151;BME280;19508;42.578;23.416;2023-04-29T00:04:24;93702.13;;;7.96;51.82
33151;BME280;19508;42.578;23.416;2023-04-29T00:06:49;93711.38;;;7.88;52.19
33151;BME280;19508;42.578;23.416;2023-04-29T00:09:15;93695.09;;;7.78;52.17
33151;BME280;19508;42.578;23.416;2023-04-29T00:11:40;93698.91;;;7.82;52.28
33151;BME280;19508;42.578;23.416;2023-04-29T00:14:05;93700.34;;;7.73;52.25
33151;BME280;19508;42.578;23.416;2023-04-29T00:16:31;93705.47;;;7.74;52.43
33151;BME280;19508;42.578;23.416;2023-04-29T00:18:57;93709.91;;;7.69;52.35
33151;BME280;19508;42.578;23.416;2023-04-29T00:21:23;93715.44;;;7.50;53.28
33151;BME280;19508;42.578;23.416;2023-04-29T00:23:51;93710.22;;;7.44;53.33
33151;BME280;19508;42.578;23.416;2023-04-29T00:26:17;93716.97;;;7.46;53.42
33151;BME280;19508;42.578;23.416;2023-04-29T00:28:42;93724.81;;;7.36;54.58
33151;BME280;19508;42.578;23.416;2023-04-29T00:31:08;93721.53;;;7.34;54.77
33151;BME280;19508;42.578;23.416;2023-04-29T00:33:33;93736.56;;;7.35;55.21
33151;BME280;19508;42.578;23.416;2023-04-29T00:35:58;93737.28;;;7.19;55.88
33151;BME280;19508;42.578;23.416;2023-04-29T00:38:24;93722.72;;;7.15;55.71
33151;BME280;19508;42.578;23.416;2023-04-29T00:40:50;93729.97;;;7.02;55.63
33151;BME280;19508;42.578;23.416;2023-04-29T00:43:15;93731.47;;;6.98;55.36
33151;BME280;19508;42.578;23.416;2023-04-29T00:45:41;93722.72;;;6.91;54.96
33151;BME280;19508;42.578;23.416;2023-04-29T00:48:06;93735.19;;;6.97;55.63
33151;BME280;19508;42.578;23.416;2023-04-29T00:50:32;93738.22;;;6.89;56.44
33151;BME280;19508;42.578;23.416;2023-04-29T00:52:58;93733.91;;;6.76;56.45
33151;BME280;19508;42.578;23.416;2023-04-29T00:55:24;93731.56;;;6.80;56.40
33151;BME280;19508;42.578;23.416;2023-04-29T00:57:51;93723.41;;;6.75;56.85
33151;BME280;19508;42.578;23.416;2023-04-29T01:00:17;93724.13;;;6.82;56.73
33151;BME280;19508;42.578;23.416;2023-04-29T01:02:44;93718.31;;;6.85;56.71
33151;BME280;19508;42.578;23.416;2023-04-29T01:05:10;93712.84;;;6.80;56.37
33151;BME280;19508;42.578;23.416;2023-04-29T01:07:42;93714.59;;;6.86;56.11
33151;BME280;19508;42.578;23.416;2023-04-29T01:10:17;93709.47;;;6.85;56.44
33151;BME280;19508;42.578;23.416;2023-04-29T01:12:45;93699.34;;;6.87;56.51
33151;BME280;19508;42.578;23.416;2023-04-29T01:15:28;93709.47;;;6.96;56.35
33151;BME280;19508;42.578;23.416;2023-04-29T01:18:19;93701.91;;;6.82;55.87
33151;BME280;19508;42.578;23.416;2023-04-29T01:20:43;93698.53;;;6.86;55.39
33151;BME280;19508;42.578;23.416;2023-04-29T01:23:10;93692.38;;;6.62;55.11
33151;BME280;19508;42.578;23.416;2023-04-29T01:25:35;93699.34;;;6.63;54.89
33151;BME280;19508;42.578;23.416;2023-04-29T01:31:06;93697.59;;;6.45;54.36
33151;BME280;19508;42.578;23.416;2023-04-29T01:39:51;93698.47;;;6.16;55.17
33151;BME280;19508;42.578;23.416;2023-04-29T01:42:21;93696.13;;;6.08;56.35
33151;BME280;19508;42.578;23.416;2023-04-29T01:44:50;93699.00;;;6.06;57.37
33151;BME280;19508;42.578;23.416;2023-04-29T01:47:17;93686.44;;;5.95;57.73
33151;BME280;19508;42.578;23.416;2023-04-29T01:49:43;93687.06;;;6.09;57.70
33151;BME280;19508;42.578;23.416;2023-04-29T01:52:11;93690.78;;;6.08;58.62
33151;BME280;19508;42.578;23.416;2023-04-29T01:54:37;93683.69;;;6.13;58.97
33151;BME280;19508;42.578;23.416;2023-04-29T01:57:03;93688.59;;;6.16;59.25
33151;BME280;19508;42.578;23.416;2023-04-29T01:59:28;93684.16;;;6.22;58.86
33151;BME280;19508;42.578;23.416;2023-04-29T02:01:54;93689.06;;;6.25;59.18
33151;BME280;19508;42.578;23.416;2023-04-29T02:04:23;93676.75;;;6.24;59.51
33151;BME280;19508;42.578;23.416;2023-04-29T02:06:49;93680.09;;;6.08;59.80
33151;BME280;19508;42.578;23.416;2023-04-29T02:09:15;93675.19;;;6.05;59.78
33151;BME280;19508;42.578;23.416;2023-04-29T02:11:40;93687.97;;;6.03;60.12
33151;BME280;19508;42.578;23.416;2023-04-29T02:14:06;93683.09;;;6.00;60.53
33151;BME280;19508;42.578;23.416;2023-04-29T02:16:31;93675.81;;;5.88;60.98
33151;BME280;19508;42.578;23.416;2023-04-29T02:18:57;93677.25;;;5.91;61.46
33151;BME280;19508;42.578;23.416;2023-04-29T02:21:22;93677.03;;;5.92;62.13
33151;BME280;19508;42.578;23.416;2023-04-29T02:23:48;93687.75;;;6.04;62.06
33151;BME280;19508;42.578;23.416;2023-04-29T02:26:13;93691.13;;;6.00;62.02
33151;BME280;19508;42.578;23.416;2023-04-29T02:28:39;93680.53;;;6.05;61.26
33151;BME280;19508;42.578;23.416;2023-04-29T02:31:05;93678.91;;;6.04;60.42
33151;BME280;19508;42.578;23.416;2023-04-29T02:33:32;93683.19;;;6.05;60.43
33151;BME280;19508;42.578;23.416;2023-04-29T02:35:57;93674.81;;;5.71;59.80
33151;BME280;19508;42.578;23.416;2023-04-29T02:38:24;93679.53;;;5.87;59.15
33151;BME280;19508;42.578;23.416;2023-04-29T02:40:49;93670.94;;;5.85;59.07
33151;BME280;19508;42.578;23.416;2023-04-29T02:43:14;93669.84;;;5.75;59.16
33151;BME280;19508;42.578;23.416;2023-04-29T02:45:40;93680.28;;;5.64;58.22
33151;BME280;19508;42.578;23.416;2023-04-29T02:48:06;93675.38;;;5.61;58.00
33151;BME280;19508;42.578;23.416;2023-04-29T02:50:31;93683.34;;;5.50;58.68
33151;BME280;19508;42.578;23.416;2023-04-29T02:52:57;93671.94;;;5.43;59.27
33151;BME280;19508;42.578;23.416;2023-04-29T02:55:23;93676.72;;;5.22;60.09
33151;BME280;19508;42.578;23.416;2023-04-29T02:57:48;93678.69;;;5.27;60.40
33151;BME280;19508;42.578;23.416;2023-04-29T03:00:14;93688.03;;;5.36;60.86
33151;BME280;19508;42.578;23.416;2023-04-29T03:02:39;93677.75;;;5.21;61.14
33151;BME280;19508;42.578;23.416;2023-04-29T03:05:05;93680.41;;;5.40;61.21
33151;BME280;19508;42.578;23.416;2023-04-29T03:07:31;93691.66;;;5.42;61.30
33151;BME280;19508;42.578;23.416;2023-04-29T03:09:56;93708.50;;;5.42;61.58
33151;BME280;19508;42.578;23.416;2023-04-29T03:12:22;93707.72;;;5.53;61.08
33151;BME280;19508;42.578;23.416;2023-04-29T03:14:47;93710.69;;;5.63;61.08
33151;BME280;19508;42.578;23.416;2023-04-29T03:17:13;93710.16;;;5.55;61.27
33151;BME280;19508;42.578;23.416;2023-04-29T03:19:40;93704.72;;;5.50;61.75
33151;BME280;19508;42.578;23.416;2023-04-29T03:22:05;93706.56;;;5.49;62.47
33151;BME280;19508;42.578;23.416;2023-04-29T03:24:32;93701.00;;;5.51;62.60
33151;BME280;19508;42.578;23.416;2023-04-29T03:26:57;93697.78;;;5.60;62.57
33151;BME280;19508;42.578;23.416;2023-04-29T03:29:24;93701.72;;;5.58;61.83
33151;BME280;19508;42.578;23.416;2023-04-29T03:31:50;93701.34;;;5.54;61.27
33151;BME280;19508;42.578;23.416;2023-04-29T03:34:16;93699.50;;;5.55;61.04
33151;BME280;19508;42.578;23.416;2023-04-29T03:36:41;93712.34;;;5.64;60.80
33151;BME280;19508;42.578;23.416;2023-04-29T03:39:07;93718.03;;;5.68;60.64
33151;BME280;19508;42.578;23.416;2023-04-29T03:41:32;93716.81;;;5.82;60.97
33151;BME280;19508;42.578;23.416;2023-04-29T03:43:58;93727.13;;;5.79;60.83
33151;BME280;19508;42.578;23.416;2023-04-29T03:46:27;93732.56;;;5.90;61.26
33151;BME280;19508;42.578;23.416;2023-04-29T03:48:53;93733.72;;;5.94;60.67
33151;BME280;19508;42.578;23.416;2023-04-29T03:51:22;93727.09;;;5.97;60.81
33151;BME280;19508;42.578;23.416;2023-04-29T03:53:48;93726.84;;;6.17;60.76
33151;BME280;19508;42.578;23.416;2023-04-29T03:56:13;93728.78;;;6.10;60.35
33151;BME280;19508;42.578;23.416;2023-04-29T03:58:39;93727.88;;;6.16;60.33
33151;BME280;19508;42.578;23.416;2023-04-29T04:01:04;93726.94;;;6.22;60.28
33151;BME280;19508;42.578;23.416;2023-04-29T04:03:30;93729.44;;;6.35;59.72
33151;BME280;19508;42.578;23.416;2023-04-29T04:05:55;93724.44;;;6.39;59.82
33151;BME280;19508;42.578;23.416;2023-04-29T04:08:20;93718.41;;;6.55;59.54
33151;BME280;19508;42.578;23.416;2023-04-29T04:10:46;93712.63;;;6.70;59.11
33151;BME280;19508;42.578;23.416;2023-04-29T04:13:11;93719.47;;;6.77;58.58
33151;BME280;19508;42.578;23.416;2023-04-29T04:15:37;93718.06;;;6.98;58.58
33151;BME280;19508;42.578;23.416;2023-04-29T04:18:02;93725.41;;;7.03;58.37
33151;BME280;19508;42.578;23.416;2023-04-29T04:20:28;93730.28;;;7.18;57.77
33151;BME280;19508;42.578;23.416;2023-04-29T04:22:53;93732.03;;;7.24;57.75
33151;BME280;19508;42.578;23.416;2023-04-29T04:25:19;93730.41;;;7.23;57.37
33151;BME280;19508;42.578;23.416;2023-04-29T04:27:44;93733.88;;;7.35;57.46
33151;BME280;19508;42.578;23.416;2023-04-29T04:30:10;93725.84;;;7.35;57.10
33151;BME280;19508;42.578;23.416;2023-04-29T04:32:35;93723.97;;;7.24;57.80
33151;BME280;19508;42.578;23.416;2023-04-29T04:35:01;93727.34;;;7.31;57.72
33151;BME280;19508;42.578;23.416;2023-04-29T04:37:27;93721.06;;;7.37;57.52
33151;BME280;19508;42.578;23.416;2023-04-29T04:39:53;93720.84;;;7.27;58.28
33151;BME280;19508;42.578;23.416;2023-04-29T04:42:18;93711.28;;;7.31;58.47
33151;BME280;19508;42.578;23.416;2023-04-29T04:44:43;93710.66;;;7.52;58.71
33151;BME280;19508;42.578;23.416;2023-04-29T04:47:09;93705.72;;;7.73;57.64
33151;BME280;19508;42.578;23.416;2023-04-29T04:49:35;93712.56;;;7.80;57.71
33151;BME280;19508;42.578;23.416;2023-04-29T04:52:01;93705.03;;;7.94;57.10
33151;BME280;19508;42.578;23.416;2023-04-29T04:54:26;93706.69;;;7.95;57.71
33151;BME280;19508;42.578;23.416;2023-04-29T04:56:51;93694.66;;;7.98;56.96
33151;BME280;19508;42.578;23.416;2023-04-29T04:59:17;93701.81;;;8.09;56.46
33151;BME280;19508;42.578;23.416;2023-04-29T05:01:42;93715.75;;;7.94;56.93
33151;BME280;19508;42.578;23.416;2023-04-29T05:04:08;93720.56;;;8.20;57.20
33151;BME280;19508;42.578;23.416;2023-04-29T05:06:34;93714.59;;;8.47;55.93
33151;BME280;19508;42.578;23.416;2023-04-29T05:08:59;93712.00;;;8.86;54.76
33151;BME280;19508;42.578;23.416;2023-04-29T05:11:25;93714.53;;;9.14;54.21
33151;BME280;19508;42.578;23.416;2023-04-29T05:13:50;93710.41;;;9.45;53.45
33151;BME280;19508;42.578;23.416;2023-04-29T05:16:15;93716.84;;;9.44;54.05
33151;BME280;19508;42.578;23.416;2023-04-29T05:18:42;93704.53;;;9.70;54.13
33151;BME280;19508;42.578;23.416;2023-04-29T05:21:10;93687.69;;;10.02;53.58
33151;BME280;19508;42.578;23.416;2023-04-29T05:23:35;93685.66;;;9.43;54.47
33151;BME280;19508;42.578;23.416;2023-04-29T05:26:01;93687.50;;;9.59;53.97
33151;BME280;19508;42.578;23.416;2023-04-29T05:28:26;93678.84;;;9.79;53.72
33151;BME280;19508;42.578;23.416;2023-04-29T05:30:51;93677.22;;;9.78;52.94
33151;BME280;19508;42.578;23.416;2023-04-29T05:33:17;93677.84;;;10.12;51.81
33151;BME280;19508;42.578;23.416;2023-04-29T05:35:42;93674.72;;;10.48;51.38
33151;BME280;19508;42.578;23.416;2023-04-29T05:38:08;93669.25;;;10.74;50.18
33151;BME280;19508;42.578;23.416;2023-04-29T05:40:33;93676.75;;;10.67;50.88
33151;BME280;19508;42.578;23.416;2023-04-29T05:42:58;93663.66;;;10.81;49.77
33151;BME280;19508;42.578;23.416;2023-04-29T05:45:24;93664.69;;;11.12;49.09
33151;BME280;19508;42.578;23.416;2023-04-29T05:47:49;93655.13;;;11.37;49.27
33151;BME280;19508;42.578;23.416;2023-04-29T05:50:15;93651.50;;;11.78;47.02
33151;BME280;19508;42.578;23.416;2023-04-29T05:52:40;93657.81;;;11.99;45.73
33151;BME280;19508;42.578;23.416;2023-04-29T05:55:06;93657.25;;;11.92;45.72
33151;BME280;19508;42.578;23.416;2023-04-29T05:57:32;93650.28;;;12.22;46.05
33151;BME280;19508;42.578;23.416;2023-04-29T05:59:57;93647.09;;;12.70;45.69
33151;BME280;19508;42.578;23.416;2023-04-29T06:02:24;93649.00;;;12.70;45.39
33151;BME280;19508;42.578;23.416;2023-04-29T06:04:50;93650.34;;;12.78;45.34
33151;BME280;19508;42.578;23.416;2023-04-29T06:07:16;93657.34;;;13.04;44.33
33151;BME280;19508;42.578;23.416;2023-04-29T06:09:42;93657.22;;;13.65;44.20
33151;BME280;19508;42.578;23.416;2023-04-29T06:12:09;93658.38;;;14.08;42.66
33151;BME280;19508;42.578;23.416;2023-04-29T06:14:34;93656.78;;;14.57;41.69
33151;BME280;19508;42.578;23.416;2023-04-29T06:17:00;93663.00;;;14.91;40.78
33151;BME280;19508;42.578;23.416;2023-04-29T06:19:26;93665.59;;;15.65;40.04
33151;BME280;19508;42.578;23.416;2023-04-29T06:21:51;93657.34;;;16.18;38.47
33151;BME280;19508;42.578;23.416;2023-04-29T06:24:16;93657.88;;;16.39;37.75
33151;BME280;19508;42.578;23.416;2023-04-29T06:26:42;93646.34;;;17.17;37.11
33151;BME280;19508;42.578;23.416;2023-04-29T06:29:07;93638.84;;;17.41;35.27
33151;BME280;19508;42.578;23.416;2023-04-29T06:31:33;93635.97;;;17.93;35.61
33151;BME280;19508;42.578;23.416;2023-04-29T06:33:58;93641.81;;;18.27;34.09
33151;BME280;19508;42.578;23.416;2023-04-29T06:36:24;93654.97;;;17.98;34.86
33151;BME280;19508;42.578;23.416;2023-04-29T06:38:51;93641.44;;;18.07;36.03
33151;BME280;19508;42.578;23.416;2023-04-29T06:41:16;93650.88;;;19.09;33.39
33151;BME280;19508;42.578;23.416;2023-04-29T06:43:41;93651.63;;;19.23;33.25
33151;BME280;19508;42.578;23.416;2023-04-29T06:46:07;93648.81;;;18.56;35.83
33151;BME280;19508;42.578;23.416;2023-04-29T06:48:33;93659.38;;;19.30;33.90
33151;BME280;19508;42.578;23.416;2023-04-29T06:50:58;93652.94;;;19.26;32.50
33151;BME280;19508;42.578;23.416;2023-04-29T06:53:24;93652.19;;;19.65;32.49
33151;BME280;19508;42.578;23.416;2023-04-29T06:55:49;93652.34;;;18.70;35.99
33151;BME280;19508;42.578;23.416;2023-04-29T06:58:16;93650.03;;;18.50;34.36
33151;BME280;19508;42.578;23.416;2023-04-29T07:00:46;93660.84;;;18.55;33.67
33151;BME280;19508;42.578;23.416;2023-04-29T07:03:12;93650.63;;;18.74;32.84
33151;BME280;19508;42.578;23.416;2023-04-29T07:05:37;93649.13;;;18.68;33.52
33151;BME280;19508;42.578;23.416;2023-04-29T07:08:05;93656.16;;;18.06;34.47
33151;BME280;19508;42.578;23.416;2023-04-29T07:10:30;93651.53;;;18.70;34.00
33151;BME280;19508;42.578;23.416;2023-04-29T07:12:56;93643.22;;;18.25;34.27
33151;BME280;19508;42.578;23.416;2023-04-29T07:15:21;93653.41;;;17.64;36.58
33151;BME280;19508;42.578;23.416;2023-04-29T07:17:47;93651.22;;;17.34;35.85
33151;BME280;19508;42.578;23.416;2023-04-29T07:20:13;93654.06;;;16.96;35.29
33151;BME280;19508;42.578;23.416;2023-04-29T07:22:38;93650.91;;;16.89;37.66
33151;BME280;19508;42.578;23.416;2023-04-29T07:25:04;93642.75;;;17.22;35.48
33151;BME280;19508;42.578;23.416;2023-04-29T07:27:32;93643.66;;;17.91;36.00
33151;BME280;19508;42.578;23.416;2023-04-29T07:29:59;93640.63;;;18.06;34.80
33151;BME280;19508;42.578;23.416;2023-04-29T07:32:25;93642.25;;;18.07;36.33
33151;BME280;19508;42.578;23.416;2023-04-29T07:34:51;93648.50;;;17.94;35.39
33151;BME280;19508;42.578;23.416;2023-04-29T07:37:17;93633.38;;;18.87;34.16
33151;BME280;19508;42.578;23.416;2023-04-29T07:39:42;93645.91;;;19.33;33.16
33151;BME280;19508;42.578;23.416;2023-04-29T07:42:08;93642.94;;;19.21;32.28
33151;BME280;19508;42.578;23.416;2023-04-29T07:44:33;93636.63;;;18.90;33.63
33151;BME280;19508;42.578;23.416;2023-04-29T07:46:58;93634.41;;;20.16;33.02
33151;BME280;19508;42.578;23.416;2023-04-29T07:49:24;93634.69;;;20.54;31.40
33151;BME280;19508;42.578;23.416;2023-04-29T07:51:50;93633.13;;;19.73;32.46
33151;BME280;19508;42.578;23.416;2023-04-29T07:54:15;93629.41;;;20.09;32.04
33151;BME280;19508;42.578;23.416;2023-04-29T07:56:41;93625.69;;;21.05;30.58
33151;BME280;19508;42.578;23.416;2023-04-29T07:59:07;93618.94;;;20.51;30.27
33151;BME280;19508;42.578;23.416;2023-04-29T08:01:32;93619.41;;;20.79;29.85
33151;BME280;19508;42.578;23.416;2023-04-29T08:03:57;93622.16;;;21.05;30.52
33151;BME280;19508;42.578;23.416;2023-04-29T08:06:23;93614.72;;;21.14;30.75
33151;BME280;19508;42.578;23.416;2023-04-29T08:08:48;93608.91;;;21.42;30.22
33151;BME280;19508;42.578;23.416;2023-04-29T08:11:18;93621.75;;;21.58;29.75
33151;BME280;19508;42.578;23.416;2023-04-29T08:13:45;93617.09;;;22.86;26.68
33151;BME280;19508;42.578;23.416;2023-04-29T08:16:10;93610.22;;;23.33;25.77
33151;BME280;19508;42.578;23.416;2023-04-29T08:18:36;93606.44;;;23.05;27.13
33151;BME280;19508;42.578;23.416;2023-04-29T08:21:01;93601.09;;;23.08;25.36
33151;BME280;19508;42.578;23.416;2023-04-29T08:23:28;93612.63;;;22.72;26.07
33151;BME280;19508;42.578;23.416;2023-04-29T08:25:53;93606.75;;;22.62;25.65
33151;BME280;19508;42.578;23.416;2023-04-29T08:28:20;93609.41;;;22.70;24.57
33151;BME280;19508;42.578;23.416;2023-04-29T08:30:46;93602.38;;;23.23;25.64
33151;BME280;19508;42.578;23.416;2023-04-29T08:33:12;93607.97;;;22.94;25.14
33151;BME280;19508;42.578;23.416;2023-04-29T08:35:38;93601.75;;;23.39;24.90
33151;BME280;19508;42.578;23.416;2023-04-29T08:38:05;93593.06;;;23.36;25.80
33151;BME280;19508;42.578;23.416;2023-04-29T08:40:40;93604.94;;;23.41;26.00
33151;BME280;19508;42.578;23.416;2023-04-29T08:43:06;93595.22;;;23.64;25.72
33151;BME280;19508;42.578;23.416;2023-04-29T08:45:34;93601.22;;;23.24;25.18
33151;BME280;19508;42.578;23.416;2023-04-29T08:48:01;93592.19;;;22.91;25.65
33151;BME280;19508;42.578;23.416;2023-04-29T08:50:29;93595.59;;;23.42;25.53
33151;BME280;19508;42.578;23.416;2023-04-29T08:52:55;93586.25;;;24.37;26.56
33151;BME280;19508;42.578;23.416;2023-04-29T08:55:20;93591.47;;;23.81;23.94
33151;BME280;19508;42.578;23.416;2023-04-29T08:57:48;93589.81;;;22.80;24.64
33151;BME280;19508;42.578;23.416;2023-04-29T09:00:14;93586.28;;;22.00;26.15
33151;BME280;19508;42.578;23.416;2023-04-29T09:02:44;93571.16;;;21.94;25.00
33151;BME280;19508;42.578;23.416;2023-04-29T09:05:11;93583.56;;;22.30;25.06
33151;BME280;19508;42.578;23.416;2023-04-29T09:07:37;93578.66;;;22.14;25.33
33151;BME280;19508;42.578;23.416;2023-04-29T09:10:04;93568.25;;;22.70;27.16
33151;BME280;19508;42.578;23.416;2023-04-29T09:12:30;93569.13;;;23.04;25.42
33151;BME280;19508;42.578;23.416;2023-04-29T09:14:56;93576.91;;;23.02;26.10
33151;BME280;19508;42.578;23.416;2023-04-29T09:17:47;93568.13;;;23.42;24.79
33151;BME280;19508;42.578;23.416;2023-04-29T09:25:17;93563.38;;;21.66;26.02
33151;BME280;19508;42.578;23.416;2023-04-29T09:27:42;93550.56;;;20.60;27.37
33151;BME280;19508;42.578;23.416;2023-04-29T09:30:08;93565.66;;;20.83;26.78
33151;BME280;19508;42.578;23.416;2023-04-29T09:32:34;93565.63;;;20.31;27.10
33151;BME280;19508;42.578;23.416;2023-04-29T09:35:25;93558.09;;;20.89;27.17
33151;BME280;19508;42.578;23.416;2023-04-29T09:40:34;93554.16;;;21.24;27.68
33151;BME280;19508;42.578;23.416;2023-04-29T09:43:00;93541.13;;;21.68;25.89
33151;BME280;19508;42.578;23.416;2023-04-29T09:48:02;93542.31;;;22.68;25.79
33151;BME280;19508;42.578;23.416;2023-04-29T09:50:29;93547.31;;;21.86;25.21
33151;BME280;19508;42.578;23.416;2023-04-29T09:52:54;93543.78;;;21.85;25.65
33151;BME280;19508;42.578;23.416;2023-04-29T09:55:20;93543.41;;;21.95;25.93
33151;BME280;19508;42.578;23.416;2023-04-29T09:57:45;93535.00;;;22.72;24.16
33151;BME280;19508;42.578;23.416;2023-04-29T10:00:14;93532.19;;;23.47;24.79
33151;BME280;19508;42.578;23.416;2023-04-29T10:02:45;93523.53;;;24.06;22.42
33151;BME280;19508;42.578;23.416;2023-04-29T10:05:17;93524.94;;;24.64;22.52
33151;BME280;19508;42.578;23.416;2023-04-29T10:07:45;93517.50;;;24.65;23.26
33151;BME280;19508;42.578;23.416;2023-04-29T10:10:11;93518.16;;;24.74;21.42
33151;BME280;19508;42.578;23.416;2023-04-29T10:12:39;93509.72;;;25.23;22.18
33151;BME280;19508;42.578;23.416;2023-04-29T10:15:34;93514.28;;;24.63;22.41
33151;BME280;19508;42.578;23.416;2023-04-29T10:20:37;93500.97;;;25.21;23.34
33151;BME280;19508;42.578;23.416;2023-04-29T10:23:05;93507.13;;;25.90;22.01
33151;BME280;19508;42.578;23.416;2023-04-29T10:25:31;93492.44;;;24.82;21.18
33151;BME280;19508;42.578;23.416;2023-04-29T10:27:59;93499.59;;;23.82;21.83
33151;BME280;19508;42.578;23.416;2023-04-29T10:30:25;93510.47;;;23.66;23.40
33151;BME280;19508;42.578;23.416;2023-04-29T10:32:50;93504.81;;;24.24;21.54
33151;BME280;19508;42.578;23.416;2023-04-29T10:35:17;93496.47;;;24.08;24.39
33151;BME280;19508;42.578;23.416;2023-04-29T10:37:47;93500.97;;;24.12;23.80
33151;BME280;19508;42.578;23.416;2023-04-29T10:40:21;93499.22;;;25.44;22.42
33151;BME280;19508;42.578;23.416;2023-04-29T10:42:53;93495.38;;;24.61;22.30
33151;BME280;19508;42.578;23.416;2023-04-29T10:45:29;93495.06;;;23.28;22.90
33151;BME280;19508;42.578;23.416;2023-04-29T10:50:28;93504.22;;;22.66;23.23
33151;BME280;19508;42.578;23.416;2023-04-29T10:52:54;93494.53;;;22.81;23.04
33151;BME280;19508;42.578;23.416;2023-04-29T10:55:24;93503.09;;;21.96;24.85
33151;BME280;19508;42.578;23.416;2023-04-29T10:57:53;93498.00;;;21.56;24.25
33151;BME280;19508;42.578;23.416;2023-04-29T11:02:52;93508.41;;;21.72;25.19
33151;BME280;19508;42.578;23.416;2023-04-29T11:05:29;93496.44;;;22.68;23.22
33151;BME280;19508;42.578;23.416;2023-04-29T11:08:11;93481.59;;;22.69;22.72
33151;BME280;19508;42.578;23.416;2023-04-29T11:10:41;93494.88;;;21.66;24.38
33151;BME280;19508;42.578;23.416;2023-04-29T11:13:29;93488.00;;;21.90;23.03
33151;BME280;19508;42.578;23.416;2023-04-29T11:16:06;93487.75;;;21.74;24.06
33151;BME280;19508;42.578;23.416;2023-04-29T11:18:32;93490.47;;;21.45;25.05
33151;BME280;19508;42.578;23.416;2023-04-29T11:23:32;93484.44;;;21.22;26.36
33151;BME280;19508;42.578;23.416;2023-04-29T11:25:58;93494.88;;;21.66;24.44
33151;BME280;19508;42.578;23.416;2023-04-29T11:28:26;93496.06;;;21.57;24.45
33151;BME280;19508;42.578;23.416;2023-04-29T11:30:52;93493.28;;;21.27;24.91
33151;BME280;19508;42.578;23.416;2023-04-29T11:33:21;93489.19;;;21.42;25.92
33151;BME280;19508;42.578;23.416;2023-04-29T11:35:47;93493.78;;;21.21;26.61
33151;BME280;19508;42.578;23.416;2023-04-29T11:38:12;93495.34;;;21.39;26.67
33151;BME280;19508;42.578;23.416;2023-04-29T11:40:47;93487.31;;;21.25;26.99
33151;BME280;19508;42.578;23.416;2023-04-29T11:43:17;93484.97;;;21.06;26.42
33151;BME280;19508;42.578;23.416;2023-04-29T11:45:44;93488.84;;;20.97;25.21
33151;BME280;19508;42.578;23.416;2023-04-29T11:48:19;93484.53;;;20.87;26.93
33151;BME280;19508;42.578;23.416;2023-04-29T11:50:46;93487.59;;;20.42;26.81
33151;BME280;19508;42.578;23.416;2023-04-29T11:53:13;93493.59;;;20.27;28.07
33151;BME280;19508;42.578;23.416;2023-04-29T11:55:41;93488.88;;;19.76;28.60
33151;BME280;19508;42.578;23.416;2023-04-29T11:58:06;93490.44;;;19.28;29.56
33151;BME280;19508;42.578;23.416;2023-04-29T12:00:32;93484.81;;;19.25;30.29
33151;BME280;19508;42.578;23.416;2023-04-29T12:02:57;93475.88;;;19.33;28.37
33151;BME280;19508;42.578;23.416;2023-04-29T12:05:25;93480.22;;;19.42;29.07
33151;BME280;19508;42.578;23.416;2023-04-29T12:07:50;93487.13;;;19.40;31.99
33151;BME280;19508;42.578;23.416;2023-04-29T12:10:16;93492.44;;;19.05;30.76
33151;BME280;19508;42.578;23.416;2023-04-29T12:12:42;93486.34;;;18.77;29.34
33151;BME280;19508;42.578;23.416;2023-04-29T12:15:11;93495.41;;;18.64;30.45
33151;BME280;19508;42.578;23.416;2023-04-29T12:17:37;93495.53;;;18.59;30.31
33151;BME280;19508;42.578;23.416;2023-04-29T12:20:04;93492.47;;;18.60;31.01
33151;BME280;19508;42.578;23.416;2023-04-29T12:22:31;93493.50;;;18.96;30.20
33151;BME280;19508;42.578;23.416;2023-04-29T12:24:56;93487.13;;;19.40;30.19
33151;BME280;19508;42.578;23.416;2023-04-29T12:27:22;93481.78;;;19.26;29.24
33151;BME280;19508;42.578;23.416;2023-04-29T12:29:51;93484.38;;;19.31;29.65
33151;BME280;19508;42.578;23.416;2023-04-29T12:32:17;93479.69;;;19.23;30.16
33151;BME280;19508;42.578;23.416;2023-04-29T12:34:46;93467.59;;;19.07;31.28
33151;BME280;19508;42.578;23.416;2023-04-29T12:37:12;93470.16;;;19.12;30.59
33151;BME280;19508;42.578;23.416;2023-04-29T12:39:40;93485.31;;;18.96;31.61
33151;BME280;19508;42.578;23.416;2023-04-29T12:42:05;93481.84;;;18.73;32.72
33151;BME280;19508;42.578;23.416;2023-04-29T12:44:34;93479.41;;;18.49;35.33
33151;BME280;19508;42.578;23.416;2023-04-29T12:47:11;93481.94;;;18.45;35.14
33151;BME280;19508;42.578;23.416;2023-04-29T12:49:40;93484.88;;;18.04;39.09
33151;BME280;19508;42.578;23.416;2023-04-29T12:52:06;93483.31;;;17.48;40.80
33151;BME280;19508;42.578;23.416;2023-04-29T12:54:43;93480.13;;;17.05;43.83
33151;BME280;19508;42.578;23.416;2023-04-29T12:57:10;93483.63;;;16.78;47.04
33151;BME280;19508;42.578;23.416;2023-04-29T12:59:36;93486.22;;;16.69;47.20
33151;BME280;19508;42.578;23.416;2023-04-29T13:02:01;93475.41;;;16.64;48.40
33151;BME280;19508;42.578;23.416;2023-04-29T13:04:26;93475.03;;;16.71;48.57
33151;BME280;19508;42.578;23.416;2023-04-29T13:06:52;93481.19;;;16.76;46.60
33151;BME280;19508;42.578;23.416;2023-04-29T13:09:24;93467.09;;;16.88;45.92
33151;BME280;19508;42.578;23.416;2023-04-29T13:11:49;93465.78;;;16.99;46.53
33151;BME280;19508;42.578;23.416;2023-04-29T13:14:16;93469.25;;;17.18;43.93
33151;BME280;19508;42.578;23.416;2023-04-29T13:16:41;93470.47;;;17.26;43.07
33151;BME280;19508;42.578;23.416;2023-04-29T13:19:07;93471.44;;;17.44;43.89
33151;BME280;19508;42.578;23.416;2023-04-29T13:21:32;93465.66;;;17.59;41.61
33151;BME280;19508;42.578;23.416;2023-04-29T13:23:57;93469.38;;;17.77;40.59